LIRA/CIA METAR and TAF weather

Enter ICAO airport designator
Station Type Date Time Source
LIRA METAR 2021/05/15 23:20 UTC NOAA

LIRA 152320Z 19005KT CAVOK 15/11 Q1013


Station Type Date Time Source
LIRA Decoded METAR 2021/05/15 23:20 UTC NOAA

Roma / Ciampino, Italy (LIRA) 41-47N 012-35E 105M
May 15, 2021 - 07:20 PM EDT / 2021.05.15 2320 UTC
Wind: from the S (190 degrees) at 6 MPH (5 KT):0
Visibility: greater than 7 mile(s):0
Temperature: 59 F (15 C)
Dew Point: 51 F (11 C)
Relative Humidity: 76%
Pressure (altimeter): 29.91 in. Hg (1013 hPa)
ob: LIRA 152320Z 19005KT CAVOK 15/11 Q1013
cycle: 23

Station Type Date Time Source
LIRA TAF 2021/05/15 18:21 UTC NOAA

TAF LIRA 151700Z 1518/1618 28006KT 9999 SCT030
BECMG 1608/1610 16010KT

Example: see airport list